createdAt,value
2018-06-30T00:00:56.753Z,101843.61
2018-06-30T00:03:46.105Z,101844.83
2018-06-30T00:06:19.771Z,101847.54
2018-06-30T00:08:51.333Z,101846.54
2018-06-30T00:11:22.828Z,101848.42
2018-06-30T00:13:56.280Z,101850.18
2018-06-30T00:16:27.890Z,101853.48
2018-06-30T00:18:59.529Z,101850.44
2018-06-30T00:21:31.431Z,101844.99
2018-06-30T00:24:03.109Z,101847.35
2018-06-30T00:26:36.260Z,101845.61
2018-06-30T00:29:09.449Z,101843.86
2018-06-30T00:31:42.558Z,101839.45
2018-06-30T00:34:15.501Z,101837.41
2018-06-30T00:36:47.754Z,101843.78
2018-06-30T00:39:19.945Z,101847.79
2018-06-30T00:41:54.358Z,101843.67
2018-06-30T00:44:25.825Z,101842.63
2018-06-30T00:46:57.580Z,101839.17
2018-06-30T00:49:32.205Z,101837.00
2018-06-30T00:52:06.898Z,101832.72
2018-06-30T00:54:38.493Z,101839.66
2018-06-30T00:57:10.022Z,101846.19
2018-06-30T00:59:44.431Z,101839.20
2018-06-30T01:02:17.413Z,101847.16
2018-06-30T01:04:48.911Z,101846.59
2018-06-30T01:07:18.920Z,101844.80
2018-06-30T01:09:51.874Z,101844.39
2018-06-30T01:12:25.078Z,101839.05
2018-06-30T01:14:56.917Z,101841.84
2018-06-30T01:17:30.524Z,101838.31
2018-06-30T01:20:00.586Z,101842.84
2018-06-30T01:22:31.204Z,101841.41
2018-06-30T01:25:04.037Z,101841.80
2018-06-30T01:27:35.957Z,101840.50
2018-06-30T01:30:12.495Z,101837.36
2018-06-30T01:32:45.468Z,101831.38
2018-06-30T01:35:18.447Z,101835.02
2018-06-30T01:37:50.018Z,101829.22
2018-06-30T01:40:22.964Z,101831.53
2018-06-30T01:42:54.584Z,101825.94
2018-06-30T01:45:27.625Z,101818.62
2018-06-30T01:48:00.641Z,101821.16
2018-06-30T01:50:30.790Z,101819.33
2018-06-30T01:53:03.840Z,101815.36
2018-06-30T01:55:35.617Z,101813.96
2018-06-30T01:58:07.796Z,101819.41
2018-06-30T02:00:40.126Z,101814.89
2018-06-30T02:03:11.669Z,101810.09
2018-06-30T02:05:46.183Z,101812.33
2018-06-30T02:08:17.690Z,101811.30
2018-06-30T02:10:47.863Z,101806.39
2018-06-30T02:13:20.830Z,101809.25
2018-06-30T02:15:54.154Z,101811.14
2018-06-30T02:18:27.200Z,101805.02
2018-06-30T02:21:00.778Z,101806.19
2018-06-30T02:23:33.271Z,101797.52
2018-06-30T02:26:03.402Z,101798.80
2018-06-30T02:28:36.487Z,101799.77
2018-06-30T02:31:09.777Z,101794.79
2018-06-30T02:33:42.931Z,101800.63
2018-06-30T02:36:15.917Z,101797.33
2018-06-30T02:38:50.753Z,101791.90
2018-06-30T02:41:23.861Z,101797.22
2018-06-30T02:43:57.276Z,101800.23
2018-06-30T02:46:28.695Z,101798.73
2018-06-30T02:49:01.757Z,101803.33
2018-06-30T02:51:34.186Z,101801.15
2018-06-30T02:54:06.824Z,101801.82
2018-06-30T02:56:38.299Z,101803.37
2018-06-30T02:59:11.692Z,101796.44
2018-06-30T03:01:44.915Z,101796.19
2018-06-30T03:04:16.484Z,101793.76
2018-06-30T03:06:48.000Z,101793.77
2018-06-30T03:09:19.527Z,101798.55
2018-06-30T03:11:52.678Z,101803.45
2018-06-30T03:14:24.343Z,101801.91
2018-06-30T03:16:55.939Z,101802.09
2018-06-30T03:19:25.919Z,101803.00
2018-06-30T03:21:56.870Z,101803.95
2018-06-30T03:24:29.865Z,101798.41
2018-06-30T03:27:02.108Z,101795.33
2018-06-30T03:29:34.119Z,101793.62
2018-06-30T03:32:08.793Z,101797.92
2018-06-30T03:34:41.430Z,101794.91
2018-06-30T03:37:12.890Z,101797.81
2018-06-30T03:39:44.526Z,101793.84
2018-06-30T03:42:17.675Z,101790.50
2018-06-30T03:44:50.969Z,101791.81
2018-06-30T03:47:22.554Z,101792.19
2018-06-30T03:49:56.041Z,101793.75
2018-06-30T03:52:27.437Z,101790.81
2018-06-30T03:55:01.774Z,101791.70
2018-06-30T03:57:36.209Z,101791.03
2018-06-30T04:00:08.865Z,101790.41
2018-06-30T04:02:39.386Z,101794.64
2018-06-30T04:05:12.344Z,101790.98
2018-06-30T04:07:45.554Z,101790.55
2018-06-30T04:10:17.019Z,101794.22
2018-06-30T04:12:49.978Z,101786.11
2018-06-30T04:15:21.532Z,101782.73
2018-06-30T04:17:56.941Z,101788.75
2018-06-30T04:20:28.951Z,101791.55
2018-06-30T04:23:02.111Z,101789.02
2018-06-30T04:25:33.608Z,101791.83
2018-06-30T04:28:03.999Z,101796.70
2018-06-30T04:30:35.426Z,101800.70
2018-06-30T04:33:10.626Z,101800.30
2018-06-30T04:35:43.409Z,101795.22
2018-06-30T04:38:17.953Z,101797.94
2018-06-30T04:40:48.457Z,101794.60
2018-06-30T04:43:21.584Z,101794.05
2018-06-30T04:45:54.660Z,101795.19
2018-06-30T04:48:26.138Z,101793.27
2018-06-30T04:50:58.164Z,101794.46
2018-06-30T04:53:29.833Z,101792.55
2018-06-30T04:56:01.217Z,101794.48
2018-06-30T04:58:34.166Z,101791.33
2018-06-30T05:01:07.194Z,101792.22
2018-06-30T05:03:38.669Z,101788.95
2018-06-30T05:06:13.436Z,101783.33
2018-06-30T05:08:47.818Z,101780.75
2018-06-30T05:11:19.188Z,101787.11
2018-06-30T05:13:50.675Z,101783.27
2018-06-30T05:16:21.114Z,101783.44
2018-06-30T05:18:54.520Z,101782.07
2018-06-30T05:21:28.789Z,101782.28
2018-06-30T05:24:03.125Z,101774.34
2018-06-30T05:26:35.916Z,101774.75
2018-06-30T05:29:09.303Z,101776.80
2018-06-30T05:31:40.940Z,101775.52
2018-06-30T05:34:12.355Z,101772.36
2018-06-30T05:36:45.244Z,101777.01
2018-06-30T05:39:18.162Z,101781.33
2018-06-30T05:41:48.105Z,101778.16
2018-06-30T05:44:20.062Z,101773.44
2018-06-30T05:46:53.162Z,101768.35
2018-06-30T05:49:26.304Z,101764.28
2018-06-30T05:51:56.285Z,101772.05
2018-06-30T05:54:29.383Z,101770.49
2018-06-30T05:57:00.785Z,101770.25
2018-06-30T05:59:33.920Z,101767.44
2018-06-30T06:02:05.374Z,101771.25
2018-06-30T06:04:38.267Z,101773.97
2018-06-30T06:07:11.406Z,101771.31
2018-06-30T06:09:40.704Z,101778.31
2018-06-30T06:12:10.650Z,101780.02
2018-06-30T06:14:42.415Z,101775.16
2018-06-30T06:17:15.309Z,101775.81
2018-06-30T06:19:48.451Z,101777.65
2018-06-30T06:22:18.459Z,101768.94
2018-06-30T06:24:51.394Z,101767.74
2018-06-30T06:27:24.800Z,101770.92
2018-06-30T06:29:54.659Z,101779.41
2018-06-30T06:32:26.106Z,101770.81
2018-06-30T06:34:56.039Z,101770.52
2018-06-30T06:37:27.461Z,101772.70
2018-06-30T06:40:00.531Z,101770.49
2018-06-30T06:42:33.417Z,101772.63
2018-06-30T06:45:04.338Z,101778.20
2018-06-30T06:47:35.839Z,101774.19
2018-06-30T06:50:06.164Z,101776.05
2018-06-30T06:52:37.645Z,101775.50
2018-06-30T06:55:09.069Z,101773.67
2018-06-30T06:57:39.083Z,101772.41
2018-06-30T07:00:12.018Z,101768.50
2018-06-30T07:02:44.998Z,101771.91
2018-06-30T07:05:16.439Z,101760.81
2018-06-30T07:07:45.888Z,101762.31
2018-06-30T07:10:20.378Z,101764.44
2018-06-30T07:12:51.802Z,101763.77
2018-06-30T07:15:24.729Z,101766.91
2018-06-30T07:17:56.093Z,101758.44
2018-06-30T07:20:27.568Z,101757.28
2018-06-30T07:23:01.926Z,101757.80
2018-06-30T07:25:33.370Z,101757.95
2018-06-30T07:28:04.843Z,101766.44
2018-06-30T07:30:34.895Z,101757.53
2018-06-30T07:33:06.287Z,101760.56
2018-06-30T07:35:39.166Z,101761.49
2018-06-30T07:38:09.062Z,101764.30
2018-06-30T07:40:40.349Z,101764.49
2018-06-30T07:43:11.034Z,101754.18
2018-06-30T07:45:42.444Z,101757.53
2018-06-30T07:48:15.261Z,101751.20
2018-06-30T07:50:48.213Z,101744.97
2018-06-30T07:53:21.022Z,101745.67
2018-06-30T07:55:52.499Z,101747.92
2018-06-30T07:58:24.503Z,101742.74
2018-06-30T08:00:56.816Z,101738.23
2018-06-30T08:03:29.967Z,101747.76
2018-06-30T08:06:02.804Z,101744.49
2018-06-30T08:08:32.701Z,101741.77
2018-06-30T08:11:03.045Z,101733.45
2018-06-30T08:13:34.419Z,101734.00
2018-06-30T08:16:05.300Z,101739.20
2018-06-30T08:18:34.471Z,101733.69
2018-06-30T08:21:06.068Z,101735.93
2018-06-30T08:23:36.000Z,101741.27
2018-06-30T08:26:07.436Z,101738.27
2018-06-30T08:28:38.768Z,101736.39
2018-06-30T08:31:11.560Z,101740.92
2018-06-30T08:33:44.385Z,101742.04
2018-06-30T08:36:17.342Z,101739.20
2018-06-30T08:38:48.788Z,101734.55
2018-06-30T08:41:21.614Z,101740.08
2018-06-30T08:43:52.996Z,101733.08
2018-06-30T08:46:24.553Z,101732.82
2018-06-30T08:48:57.366Z,101722.97
2018-06-30T08:51:27.316Z,101726.01
2018-06-30T08:53:58.748Z,101724.22
2018-06-30T08:56:30.139Z,101726.62
2018-06-30T08:59:01.481Z,101730.52
2018-06-30T09:01:34.233Z,101728.73
2018-06-30T09:04:07.548Z,101735.37
2018-06-30T09:06:40.558Z,101729.75
2018-06-30T09:09:13.886Z,101729.13
2018-06-30T09:11:45.217Z,101724.98
2018-06-30T09:14:16.561Z,101723.30
2018-06-30T09:16:49.361Z,101726.42
2018-06-30T09:19:22.133Z,101721.13
2018-06-30T09:21:55.373Z,101723.45
2018-06-30T09:24:26.760Z,101723.92
2018-06-30T09:27:01.358Z,101722.97
2018-06-30T09:29:32.751Z,101732.36
2018-06-30T09:32:05.572Z,101725.63
2018-06-30T09:34:37.244Z,101727.31
2018-06-30T09:37:08.744Z,101735.37
2018-06-30T09:39:43.133Z,101721.73
2018-06-30T09:42:16.069Z,101721.29
2018-06-30T09:44:46.424Z,101723.38
2018-06-30T09:47:20.831Z,101714.77
2018-06-30T09:49:53.951Z,101719.47
2018-06-30T09:52:26.176Z,101718.92
2018-06-30T09:54:59.188Z,101718.66
2018-06-30T09:57:31.892Z,101731.41
2018-06-30T10:00:03.212Z,101720.25
2018-06-30T10:02:34.955Z,101725.48
2018-06-30T10:05:07.908Z,101721.91
2018-06-30T10:07:40.743Z,101731.87
2018-06-30T10:10:14.125Z,101716.48
2018-06-30T10:12:47.127Z,101713.04
2018-06-30T10:15:21.569Z,101706.56
2018-06-30T10:17:53.449Z,101709.40
2018-06-30T10:20:24.836Z,101703.95
2018-06-30T10:22:58.555Z,101707.27
2018-06-30T10:25:29.945Z,101704.03
2018-06-30T10:28:02.898Z,101704.59
2018-06-30T10:30:34.586Z,101707.50
2018-06-30T10:33:06.495Z,101701.75
2018-06-30T10:35:36.889Z,101694.98
2018-06-30T10:38:09.974Z,101691.06
2018-06-30T10:40:42.768Z,101692.61
2018-06-30T10:43:13.242Z,101690.55
2018-06-30T10:45:44.619Z,101693.58
2018-06-30T10:48:14.630Z,101685.38
2018-06-30T10:50:45.999Z,101686.02
2018-06-30T10:53:18.856Z,101688.60
2018-06-30T10:55:53.321Z,101680.56
2018-06-30T10:58:25.450Z,101683.16
2018-06-30T11:00:59.789Z,101678.59
2018-06-30T11:03:31.534Z,101662.38
2018-06-30T11:06:04.369Z,101673.63
2018-06-30T11:08:36.067Z,101674.41
2018-06-30T11:11:06.159Z,101679.95
2018-06-30T11:13:38.945Z,101675.66
2018-06-30T11:16:11.770Z,101661.70
2018-06-30T11:18:43.401Z,101670.44
2018-06-30T11:21:16.208Z,101667.34
2018-06-30T11:23:49.194Z,101667.03
2018-06-30T11:26:20.479Z,101668.00
2018-06-30T11:28:51.975Z,101673.52
2018-06-30T11:31:24.813Z,101678.63
2018-06-30T11:33:57.580Z,101664.75
2018-06-30T11:36:27.463Z,101665.94
2018-06-30T11:39:00.404Z,101659.92
2018-06-30T11:41:30.268Z,101655.59
2018-06-30T11:44:03.166Z,101655.66
2018-06-30T11:46:37.730Z,101658.14
2018-06-30T11:49:09.756Z,101660.04
2018-06-30T11:51:41.181Z,101651.98
2018-06-30T11:54:11.110Z,101661.85
2018-06-30T11:56:42.635Z,101664.78
2018-06-30T11:59:13.069Z,101653.92
2018-06-30T12:01:44.409Z,101658.74
2018-06-30T12:04:17.239Z,101646.13
2018-06-30T12:06:51.541Z,101638.59
2018-06-30T12:09:24.420Z,101641.89
2018-06-30T12:11:57.586Z,101641.66
2018-06-30T12:14:30.384Z,101640.80
2018-06-30T12:17:04.632Z,101639.16
2018-06-30T12:19:36.702Z,101642.67
2018-06-30T12:22:09.747Z,101634.84
2018-06-30T12:24:42.676Z,101636.58
2018-06-30T12:27:14.026Z,101639.19
2018-06-30T12:29:48.376Z,101630.41
2018-06-30T12:32:21.274Z,101627.09
2018-06-30T12:34:54.036Z,101633.05
2018-06-30T12:37:26.963Z,101621.26
2018-06-30T12:40:00.092Z,101626.32
2018-06-30T12:42:31.432Z,101617.80
2018-06-30T12:45:04.625Z,101620.75
2018-06-30T12:47:37.352Z,101616.55
2018-06-30T12:50:09.258Z,101626.23
2018-06-30T12:52:40.657Z,101615.02
2018-06-30T12:55:12.110Z,101609.20
2018-06-30T12:57:43.469Z,101618.39
2018-06-30T13:00:16.421Z,101606.84
2018-06-30T13:02:49.216Z,101610.16
2018-06-30T13:05:20.880Z,101612.45
2018-06-30T13:07:54.010Z,101603.52
2018-06-30T13:10:25.477Z,101608.11
2018-06-30T13:12:56.871Z,101609.81
2018-06-30T13:15:28.318Z,101605.98
2018-06-30T13:17:59.853Z,101600.20
2018-06-30T13:20:33.397Z,101604.28
2018-06-30T13:23:06.642Z,101597.65
2018-06-30T13:25:38.004Z,101605.72
2018-06-30T13:28:10.930Z,101608.30
2018-06-30T13:30:44.121Z,101605.66
2018-06-30T13:33:15.563Z,101599.27
2018-06-30T13:35:45.452Z,101603.00
2018-06-30T13:38:18.386Z,101592.02
2018-06-30T13:40:48.326Z,101601.32
2018-06-30T13:43:19.761Z,101587.86
2018-06-30T13:45:54.073Z,101598.25
2018-06-30T13:48:26.898Z,101589.85
2018-06-30T13:50:59.817Z,101589.09
2018-06-30T13:53:31.213Z,101588.73
2018-06-30T13:56:02.906Z,101591.45
2018-06-30T13:58:35.148Z,101597.48
2018-06-30T14:01:06.618Z,101601.31
2018-06-30T14:03:39.704Z,101580.64
2018-06-30T14:06:09.517Z,101582.80
2018-06-30T14:08:43.875Z,101568.66
2018-06-30T14:11:15.635Z,101574.78
2018-06-30T14:13:48.684Z,101581.33
2018-06-30T14:16:21.527Z,101571.33
2018-06-30T14:18:53.033Z,101571.07
2018-06-30T14:21:24.567Z,101569.03
2018-06-30T14:23:55.995Z,101579.80
2018-06-30T14:26:25.630Z,101576.90
2018-06-30T14:28:58.770Z,101567.05
2018-06-30T14:31:28.744Z,101560.11
2018-06-30T14:34:01.709Z,101552.86
2018-06-30T14:36:35.048Z,101557.95
2018-06-30T14:39:05.847Z,101561.02
2018-06-30T14:41:37.828Z,101570.78
2018-06-30T14:44:10.842Z,101561.14
2018-06-30T14:46:42.251Z,101564.73
2018-06-30T14:49:15.259Z,101568.23
2018-06-30T14:51:46.640Z,101560.91
2018-06-30T14:54:16.704Z,101559.58
2018-06-30T14:56:48.642Z,101562.34
2018-06-30T14:59:20.445Z,101556.86
2018-06-30T15:01:53.323Z,101558.98
2018-06-30T15:04:26.060Z,101566.84
2018-06-30T15:06:57.575Z,101564.19
2018-06-30T15:09:26.692Z,101558.42
2018-06-30T15:11:56.571Z,101567.58
2018-06-30T15:14:29.379Z,101561.72
2018-06-30T15:17:00.683Z,101547.29
2018-06-30T15:19:32.097Z,101541.50
2018-06-30T15:22:03.992Z,101557.72
2018-06-30T15:24:36.982Z,101551.53
2018-06-30T15:27:11.459Z,101555.09
2018-06-30T15:29:44.268Z,101563.46
2018-06-30T15:32:16.317Z,101555.84
2018-06-30T15:34:47.675Z,101559.33
2018-06-30T15:37:22.036Z,101552.08
2018-06-30T15:39:55.326Z,101554.18
2018-06-30T15:42:25.188Z,101547.42
2018-06-30T15:44:58.047Z,101552.77
2018-06-30T15:47:30.964Z,101558.31
2018-06-30T15:50:02.857Z,101551.95
2018-06-30T15:52:36.260Z,101539.75
2018-06-30T15:55:09.388Z,101541.19
2018-06-30T15:57:42.165Z,101550.82
2018-06-30T16:00:15.012Z,101534.65
2018-06-30T16:02:49.241Z,101555.86
2018-06-30T16:05:22.258Z,101536.84
2018-06-30T16:07:53.552Z,101532.35
2018-06-30T16:10:26.440Z,101526.72
2018-06-30T16:12:58.464Z,101528.39
2018-06-30T16:15:29.023Z,101530.89
2018-06-30T16:18:01.832Z,101524.03
2018-06-30T16:20:36.657Z,101518.83
2018-06-30T16:23:09.664Z,101517.56
2018-06-30T16:25:40.988Z,101522.33
2018-06-30T16:28:13.438Z,101513.39
2018-06-30T16:30:46.343Z,101505.24
2018-06-30T16:33:20.609Z,101520.82
2018-06-30T16:35:50.544Z,101504.83
2018-06-30T16:38:26.030Z,101510.06
2018-06-30T16:40:59.038Z,101503.95
2018-06-30T16:43:32.321Z,101512.83
2018-06-30T16:46:02.820Z,101506.98
2018-06-30T16:48:35.617Z,101513.52
2018-06-30T16:51:07.299Z,101517.19
2018-06-30T16:53:41.688Z,101505.72
2018-06-30T16:56:14.670Z,101524.47
2018-06-30T16:58:44.732Z,101492.64
2018-06-30T17:01:17.668Z,101516.39
2018-06-30T17:03:50.489Z,101503.12
2018-06-30T17:06:21.889Z,101509.92
2018-06-30T17:08:52.465Z,101519.16
2018-06-30T17:11:26.744Z,101520.08
2018-06-30T17:13:58.124Z,101515.02
2018-06-30T17:16:30.910Z,101511.22
2018-06-30T17:19:03.794Z,101510.90
2018-06-30T17:21:36.196Z,101499.77
2018-06-30T17:24:09.115Z,101511.52
2018-06-30T17:26:40.869Z,101510.56
2018-06-30T17:29:13.551Z,101506.22
2018-06-30T17:31:44.997Z,101502.73
2018-06-30T17:34:16.398Z,101503.41
2018-06-30T17:36:47.864Z,101508.44
2018-06-30T17:39:22.116Z,101500.19
2018-06-30T17:41:56.762Z,101497.90
2018-06-30T17:44:29.563Z,101500.50
2018-06-30T17:47:00.860Z,101498.21
2018-06-30T17:49:32.317Z,101500.73
2018-06-30T17:52:02.200Z,101503.02
2018-06-30T17:54:32.130Z,101497.20
2018-06-30T17:57:03.818Z,101489.88
2018-06-30T17:59:35.269Z,101485.44
2018-06-30T18:02:05.368Z,101487.65
2018-06-30T18:04:38.063Z,101488.62
2018-06-30T18:07:11.503Z,101492.27
2018-06-30T18:09:44.457Z,101494.34
2018-06-30T18:12:17.326Z,101490.05
2018-06-30T18:14:51.790Z,101500.13
2018-06-30T18:17:26.216Z,101506.88
2018-06-30T18:19:57.608Z,101501.88
2018-06-30T18:22:30.509Z,101508.09
2018-06-30T18:25:00.422Z,101511.09
2018-06-30T18:27:34.662Z,101507.19
2018-06-30T18:30:06.094Z,101515.19
2018-06-30T18:32:39.007Z,101509.04
2018-06-30T18:35:11.973Z,101507.94
2018-06-30T18:37:41.292Z,101509.78
2018-06-30T18:40:12.737Z,101526.47
2018-06-30T18:42:45.564Z,101530.14
2018-06-30T18:45:16.984Z,101527.62
2018-06-30T18:47:49.856Z,101528.56
2018-06-30T18:50:24.202Z,101525.41
2018-06-30T18:52:57.074Z,101528.40
2018-06-30T18:55:29.963Z,101534.93
2018-06-30T18:58:00.332Z,101532.09
2018-06-30T19:00:32.007Z,101531.13
2018-06-30T19:03:05.030Z,101530.94
2018-06-30T19:05:38.308Z,101543.02
2018-06-30T19:08:10.327Z,101539.16
2018-06-30T19:10:43.242Z,101529.69
2018-06-30T19:13:16.160Z,101531.69
2018-06-30T19:15:47.728Z,101539.04
2018-06-30T19:18:20.651Z,101536.05
2018-06-30T19:20:53.990Z,101530.86
2018-06-30T19:23:26.896Z,101539.69
2018-06-30T19:25:58.864Z,101536.62
2018-06-30T19:28:28.766Z,101544.75
2018-06-30T19:31:00.712Z,101551.64
2018-06-30T19:33:32.180Z,101552.09
2018-06-30T19:36:05.047Z,101562.72
2018-06-30T19:38:36.520Z,101564.22
2018-06-30T19:41:09.507Z,101559.13
2018-06-30T19:43:42.310Z,101558.09
2018-06-30T19:46:15.627Z,101555.66
2018-06-30T19:48:47.174Z,101555.64
2018-06-30T19:51:18.518Z,101567.13
2018-06-30T19:53:51.850Z,101564.89
2018-06-30T19:56:23.784Z,101567.00
2018-06-30T19:58:56.745Z,101570.68
2018-06-30T20:01:31.878Z,101581.51
2018-06-30T20:04:04.960Z,101576.95
2018-06-30T20:06:39.444Z,101588.89
2018-06-30T20:09:14.116Z,101587.00
2018-06-30T20:11:44.572Z,101579.37
2018-06-30T20:14:14.492Z,101581.66
2018-06-30T20:16:46.484Z,101580.72
2018-06-30T20:19:19.490Z,101583.04
2018-06-30T20:21:50.839Z,101576.86
2018-06-30T20:24:23.753Z,101581.84
2018-06-30T20:26:56.642Z,101589.30
2018-06-30T20:29:29.253Z,101587.77
2018-06-30T20:32:02.783Z,101597.52
2018-06-30T20:34:34.236Z,101594.25
2018-06-30T20:37:05.708Z,101596.19
2018-06-30T20:39:38.190Z,101594.59
2018-06-30T20:42:09.549Z,101594.47
2018-06-30T20:44:40.943Z,101597.36
2018-06-30T20:47:12.396Z,101594.66
2018-06-30T20:49:47.010Z,101601.36
2018-06-30T20:52:20.411Z,101595.55
2018-06-30T20:54:51.921Z,101600.17
2018-06-30T20:57:23.307Z,101610.84
2018-06-30T20:59:56.227Z,101611.23
2018-06-30T21:02:25.741Z,101608.53
2018-06-30T21:04:58.717Z,101603.37
2018-06-30T21:07:28.707Z,101609.01
2018-06-30T21:10:00.167Z,101610.78
2018-06-30T21:12:31.567Z,101616.83
2018-06-30T21:15:05.398Z,101609.60
2018-06-30T21:17:39.050Z,101616.57
2018-06-30T21:20:10.723Z,101616.46
2018-06-30T21:22:43.508Z,101622.51
2018-06-30T21:25:16.682Z,101609.37
2018-06-30T21:27:47.462Z,101622.52
2018-06-30T21:30:19.526Z,101616.41
2018-06-30T21:32:50.446Z,101622.14
2018-06-30T21:35:24.313Z,101613.91
2018-06-30T21:37:56.071Z,101624.71
2018-06-30T21:40:27.718Z,101622.22
2018-06-30T21:42:59.683Z,101620.37
2018-06-30T21:45:34.137Z,101629.31
2018-06-30T21:48:06.947Z,101623.92
2018-06-30T21:50:39.098Z,101626.18
2018-06-30T21:53:12.018Z,101627.98
2018-06-30T21:55:43.747Z,101618.83
2018-06-30T21:58:15.362Z,101627.06
2018-06-30T22:01:07.011Z,101628.73
2018-06-30T22:03:38.485Z,101632.77
2018-06-30T22:06:11.340Z,101630.20
2018-06-30T22:08:41.804Z,101638.66
2018-06-30T22:11:14.006Z,101643.41
2018-06-30T22:13:45.543Z,101644.51
2018-06-30T22:16:17.135Z,101641.12
2018-06-30T22:18:48.633Z,101643.73
2018-06-30T22:21:18.760Z,101641.52
2018-06-30T22:23:50.503Z,101640.95
2018-06-30T22:26:25.209Z,101642.36
2018-06-30T22:28:55.219Z,101640.16
2018-06-30T22:31:26.913Z,101636.39
2018-06-30T22:34:01.708Z,101640.36
2018-06-30T22:36:34.053Z,101639.27
2018-06-30T22:39:05.487Z,101632.80
2018-06-30T22:41:37.047Z,101638.75
2018-06-30T22:44:08.720Z,101634.49
2018-06-30T22:46:43.136Z,101636.33
2018-06-30T22:49:14.510Z,101627.61
2018-06-30T22:51:45.901Z,101634.55
2018-06-30T22:54:15.912Z,101632.20
2018-06-30T22:56:47.282Z,101636.46
2018-06-30T22:59:20.204Z,101634.80
2018-06-30T23:01:54.553Z,101651.03
2018-06-30T23:04:29.308Z,101636.55
2018-06-30T23:07:00.379Z,101650.51
2018-06-30T23:09:33.354Z,101641.36
2018-06-30T23:12:05.969Z,101640.00
2018-06-30T23:14:37.375Z,101646.03
2018-06-30T23:17:10.710Z,101623.97
2018-06-30T23:19:42.146Z,101644.23
2018-06-30T23:22:13.620Z,101637.34
2018-06-30T23:24:45.878Z,101637.45
2018-06-30T23:27:18.367Z,101648.64
2018-06-30T23:29:48.854Z,101633.56
2018-06-30T23:32:23.678Z,101640.91
2018-06-30T23:34:55.095Z,101637.09
2018-06-30T23:37:26.620Z,101644.15
2018-06-30T23:39:58.813Z,101644.95
2018-06-30T23:42:28.981Z,101634.01
2018-06-30T23:45:00.447Z,101641.16
2018-06-30T23:47:33.887Z,101635.69
2018-06-30T23:50:05.480Z,101647.55
2018-06-30T23:52:39.223Z,101639.94
2018-06-30T23:55:12.773Z,101637.16
2018-06-30T23:57:45.635Z,101645.57
